Time;durP1;ratioP1;P1;durP2;ratioP2;P2;SDS_P1;SDS_P2;PMS_P1;PMS_P2;Temp;Humidity;BMP_temperature;BMP_pressure;BME280_temperature;BME280_humidity;BME280_pressure;Samples;Min_cycle;Max_cycle;Signal;HPM_P1;HPM_P2
2021/12/27 00:00:49;;;;;;;;;;;;;;;11.24;51.88;99880.31;1044357;28;1453;-55
2021/12/27 00:01:41;;;;;;;;;;;;;;;11.22;51.88;99882.25;1044360;28;1363;-53
2021/12/27 00:02:31;;;;;;;;;;;;;;;11.22;51.79;99882.25;1045765;28;765;-51
2021/12/27 00:03:22;;;;;;;;;;;;;;;11.23;51.69;99875.94;1042100;28;1351;-53
2021/12/27 00:04:12;;;;;;;;;;;;;;;11.24;51.51;99877.66;1043952;28;1488;-54
2021/12/27 00:05:02;;;;;;;;;;;;;;;11.24;52.05;99879.47;1045803;28;1219;-52
2021/12/27 00:05:53;;;;;;;;;;;;;;;11.24;52.00;99879.47;1040734;28;1549;-53
2021/12/27 00:06:43;;;;;;;;;;;;;;;11.22;51.82;99878.75;1041207;28;1393;-54
2021/12/27 00:07:34;;;;;;;;;;;;;;;11.20;51.92;99878.88;1043465;28;1638;-54
2021/12/27 00:08:24;;;;;;;;;;;;;;;11.20;52.01;99873.53;1046171;28;1329;-54
2021/12/27 00:09:14;;;;;;;;;;;;;;;11.21;51.91;99880.56;1045299;28;1366;-52
2021/12/27 00:10:05;;;;;;;;;;;;;;;11.21;52.11;99877.91;1046784;28;1221;-54
2021/12/27 00:10:55;;;;;;;;;;;;;;;11.20;51.76;99881.53;1044865;28;1480;-54
2021/12/27 00:11:46;;;;;;;;;;;;;;;11.21;52.31;99880.56;1046348;28;1487;-55
2021/12/27 00:12:36;;;;;;;;;;;;;;;11.20;51.79;99884.19;1044271;28;1364;-53
2021/12/27 00:13:27;;;;;;;;;;;;;;;11.21;52.46;99885.03;1042781;28;1475;-55
2021/12/27 00:14:18;;;;;;;;;;;;;;;11.20;52.42;99886.03;1045705;28;1559;-52
2021/12/27 00:15:08;;;;;;;;;;;;;;;11.20;52.44;99878.88;1041574;28;920;-54
2021/12/27 00:15:59;;;;;;;;;;;;;;;11.19;52.15;99877.19;1044388;28;1475;-55
2021/12/27 00:16:49;;;;;;;;;;;;;;;11.18;52.32;99883.47;1043457;28;1477;-54
2021/12/27 00:17:39;;;;;;;;;;;;;;;11.19;52.39;99882.50;1046297;28;1548;-54
2021/12/27 00:18:30;;;;;;;;;;;;;;;11.19;52.16;99874.50;1044714;28;1171;-54
2021/12/27 00:19:20;;;;;;;;;;;;;;;11.19;52.29;99877.19;1044307;28;1321;-55
2021/12/27 00:20:11;;;;;;;;;;;;;;;11.19;52.08;99879.84;1044304;28;1270;-50
2021/12/27 00:21:02;;;;;;;;;;;;;;;11.18;52.34;99882.63;1043951;28;1241;-55
2021/12/27 00:21:52;;;;;;;;;;;;;;;11.17;52.27;99886.28;1045378;28;1130;-55
2021/12/27 00:22:43;;;;;;;;;;;;;;;11.16;52.48;99877.41;1044559;28;1149;-55
2021/12/27 00:23:33;;;;;;;;;;;;;;;11.14;52.23;99872.22;1046092;28;1497;-55
2021/12/27 00:24:23;;;;;;;;;;;;;;;11.15;52.58;99886.41;1041661;28;795;-54
2021/12/27 00:25:14;;;;;;;;;;;;;;;11.14;52.24;99874.03;1045709;28;1492;-53
2021/12/27 00:26:04;;;;;;;;;;;;;;;11.13;52.17;99875.84;1041929;28;1674;-52
2021/12/27 00:26:55;;;;;;;;;;;;;;;11.14;52.67;99866.03;1044223;28;1419;-54
2021/12/27 00:27:46;;;;;;;;;;;;;;;11.14;52.30;99871.38;1042170;28;832;-52
2021/12/27 00:28:36;;;;;;;;;;;;;;;11.14;52.26;99868.69;1042158;28;741;-52
2021/12/27 00:29:27;;;;;;;;;;;;;;;11.15;52.50;99870.41;1042137;28;719;-52
2021/12/27 00:30:18;;;;;;;;;;;;;;;11.14;52.68;99863.38;1042071;28;995;-52
2021/12/27 00:31:08;;;;;;;;;;;;;;;11.16;52.52;99873.91;1042838;28;688;-48
2021/12/27 00:31:59;;;;;;;;;;;;;;;11.16;52.67;99865.91;1042078;28;740;-48
2021/12/27 00:32:49;;;;;;;;;;;;;;;11.16;52.14;99861.41;1042237;28;679;-49
2021/12/27 00:33:39;;;;;;;;;;;;;;;11.14;52.50;99866.03;1042177;28;724;-53
2021/12/27 00:34:30;;;;;;;;;;;;;;;11.13;52.53;99864.34;1042159;28;693;-51
2021/12/27 00:35:23;;;;;;;;;;;;;;;11.13;52.52;99867.84;1042175;28;793;-52
2021/12/27 00:36:14;;;;;;;;;;;;;;;11.15;52.48;99867.72;1041481;28;838;-51
2021/12/27 00:37:04;;;;;;;;;;;;;;;11.16;52.79;99865.91;1043191;28;1714;-49
2021/12/27 00:37:55;;;;;;;;;;;;;;;11.14;53.01;99864.22;1046308;28;771;-51
2021/12/27 00:38:45;;;;;;;;;;;;;;;11.16;52.77;99865.91;1045872;28;1814;-49
2021/12/27 00:39:36;;;;;;;;;;;;;;;11.16;53.01;99860.56;1044137;28;1462;-51
2021/12/27 00:40:26;;;;;;;;;;;;;;;11.15;52.60;99859.72;1044458;28;1439;-49
2021/12/27 00:41:16;;;;;;;;;;;;;;;11.14;52.79;99858.03;1045363;28;1572;-49
2021/12/27 00:42:07;;;;;;;;;;;;;;;11.13;53.22;99859.84;1043514;28;1401;-51
2021/12/27 00:42:57;;;;;;;;;;;;;;;11.13;52.83;99856.34;1046164;28;1481;-49
2021/12/27 00:43:48;;;;;;;;;;;;;;;11.14;53.12;99856.22;1042739;28;637;-49
2021/12/27 00:44:38;;;;;;;;;;;;;;;11.12;52.76;99851.97;1044979;28;1591;-50
2021/12/27 00:45:28;;;;;;;;;;;;;;;11.13;53.22;99859.00;1042099;28;1570;-52
2021/12/27 00:46:19;;;;;;;;;;;;;;;11.11;52.66;99851.13;1044530;28;1486;-53
2021/12/27 00:47:09;;;;;;;;;;;;;;;11.11;52.86;99848.47;1045374;28;1493;-52
2021/12/27 00:48:00;;;;;;;;;;;;;;;11.10;52.98;99846.81;1041544;28;1553;-53
2021/12/27 00:48:50;;;;;;;;;;;;;;;11.12;53.05;99841.31;1042681;28;1383;-53
2021/12/27 00:49:41;;;;;;;;;;;;;;;11.10;52.93;99840.63;1045325;28;1375;-56
2021/12/27 00:50:32;;;;;;;;;;;;;;;11.10;52.99;99843.28;1041523;28;812;-54
2021/12/27 00:51:22;;;;;;;;;;;;;;;11.11;53.28;99834.28;1044388;28;1481;-53
2021/12/27 00:52:12;;;;;;;;;;;;;;;11.10;52.90;99837.97;1046113;28;1961;-53
2021/12/27 00:53:03;;;;;;;;;;;;;;;11.09;52.98;99836.25;1042643;28;856;-53
2021/12/27 00:53:53;;;;;;;;;;;;;;;11.07;53.17;99831.06;1041548;28;692;-53
2021/12/27 00:54:44;;;;;;;;;;;;;;;11.08;53.03;99837.22;1045636;28;1637;-54
2021/12/27 00:55:34;;;;;;;;;;;;;;;11.07;53.18;99836.38;1044316;28;1495;-50
2021/12/27 00:56:24;;;;;;;;;;;;;;;11.09;53.23;99830.94;1044595;28;1545;-55
2021/12/27 00:57:15;;;;;;;;;;;;;;;11.08;53.07;99834.56;1043425;28;1354;-56
2021/12/27 00:58:05;;;;;;;;;;;;;;;11.10;53.09;99829.97;1046116;28;1749;-53
2021/12/27 00:58:56;;;;;;;;;;;;;;;11.09;52.91;99828.25;1044628;28;1557;-54
2021/12/27 00:59:46;;;;;;;;;;;;;;;11.10;52.89;99825.47;1046073;28;1462;-54
2021/12/27 01:00:37;;;;;;;;;;;;;;;11.09;53.11;99828.25;1044519;28;1363;-54
2021/12/27 01:01:27;;;;;;;;;;;;;;;11.08;53.11;99826.56;1046064;28;1509;-55
2021/12/27 01:02:17;;;;;;;;;;;;;;;11.07;53.31;99836.38;1043594;28;1567;-55
2021/12/27 01:03:08;;;;;;;;;;;;;;;11.06;52.87;99829.34;1045138;28;1375;-52
2021/12/27 01:03:59;;;;;;;;;;;;;;;11.06;53.00;99829.34;1044421;28;1701;-52
2021/12/27 01:04:49;;;;;;;;;;;;;;;11.05;53.18;99829.47;1044336;28;1577;-55
2021/12/27 01:05:40;;;;;;;;;;;;;;;11.07;53.07;99828.38;1042100;28;703;-52
2021/12/27 01:06:30;;;;;;;;;;;;;;;11.07;52.84;99830.22;1042093;28;734;-54
2021/12/27 01:07:20;;;;;;;;;;;;;;;11.08;53.16;99831.91;1042022;28;841;-55
2021/12/27 01:08:11;;;;;;;;;;;;;;;11.07;52.77;99828.38;1042124;28;661;-55
2021/12/27 01:09:01;;;;;;;;;;;;;;;11.08;53.29;99834.56;1042122;28;748;-56
2021/12/27 01:10:22;;;;;;;;;;;;;;;11.06;53.63;99823.19;1042055;28;617;-55
2021/12/27 01:11:24;;;;;;;;;;;;;;;11.06;53.39;99823.19;1041971;28;708;-56
2021/12/27 01:13:36;;;;;;;;;;;;;;;11.05;53.17;99818.81;1041339;28;817;-54
2021/12/27 01:14:39;;;;;;;;;;;;;;;11.05;53.47;99816.16;1041409;28;838;-55
2021/12/27 01:16:29;;;;;;;;;;;;;;;11.05;53.29;99821.50;1041376;28;785;-54
2021/12/27 01:17:20;;;;;;;;;;;;;;;11.05;53.40;99830.34;1041043;28;745;-55
2021/12/27 01:18:10;;;;;;;;;;;;;;;11.05;53.26;99824.16;1040997;28;853;-56
2021/12/27 01:19:00;;;;;;;;;;;;;;;11.04;53.46;99833.13;1040877;28;708;-54
2021/12/27 01:19:51;;;;;;;;;;;;;;;11.05;53.55;99824.16;1041010;28;824;-55
2021/12/27 01:20:42;;;;;;;;;;;;;;;11.04;53.27;99827.78;1040761;28;729;-56
2021/12/27 01:21:32;;;;;;;;;;;;;;;11.04;53.32;99827.78;1041446;28;725;-54
2021/12/27 01:22:23;;;;;;;;;;;;;;;11.04;53.38;99835.78;1040917;28;1887;-55
2021/12/27 01:23:13;;;;;;;;;;;;;;;11.04;53.35;99830.47;1040775;28;773;-54
2021/12/27 01:24:04;;;;;;;;;;;;;;;11.04;53.45;99825.13;1041306;28;850;-55
2021/12/27 01:24:54;;;;;;;;;;;;;;;11.04;53.35;99825.13;1040287;28;777;-54
2021/12/27 01:25:44;;;;;;;;;;;;;;;11.03;53.27;99815.44;1040825;28;693;-54
2021/12/27 01:26:35;;;;;;;;;;;;;;;11.03;53.44;99818.94;1040981;28;775;-53
2021/12/27 01:27:25;;;;;;;;;;;;;;;11.04;53.42;99817.13;1037625;28;823;-51
2021/12/27 01:28:18;;;;;;;;;;;;;;;11.03;53.32;99812.78;1036466;28;864;-53
2021/12/27 01:29:09;;;;;;;;;;;;;;;11.03;53.55;99810.09;1041385;28;613;-54
2021/12/27 01:29:59;;;;;;;;;;;;;;;11.03;53.50;99812.78;1041414;28;613;-53
2021/12/27 01:30:50;;;;;;;;;;;;;;;11.02;53.53;99816.41;1040806;28;720;-54
2021/12/27 01:31:40;;;;;;;;;;;;;;;11.02;53.54;99813.75;1040732;28;774;-53
2021/12/27 01:32:36;;;;;;;;;;;;;;;11.00;53.89;99808.53;1041306;28;1897;-51
2021/12/27 01:33:27;;;;;;;;;;;;;;;11.00;53.54;99810.34;1041303;28;707;-55
2021/12/27 01:34:17;;;;;;;;;;;;;;;10.99;53.22;99806.84;1041464;28;807;-54
2021/12/27 01:35:07;;;;;;;;;;;;;;;10.99;53.36;99804.19;1041337;28;602;-54
2021/12/27 01:35:58;;;;;;;;;;;;;;;10.99;53.66;99806.00;1041389;28;707;-54
2021/12/27 01:36:48;;;;;;;;;;;;;;;10.99;53.62;99811.31;1041264;28;1140;-54
2021/12/27 01:37:39;;;;;;;;;;;;;;;10.99;53.44;99814.00;1041456;28;786;-53
2021/12/27 01:38:29;;;;;;;;;;;;;;;11.00;53.58;99813.00;1041347;28;733;-54
2021/12/27 01:39:20;;;;;;;;;;;;;;;11.00;53.56;99813.00;1041349;28;787;-54
2021/12/27 01:40:10;;;;;;;;;;;;;;;11.00;53.51;99807.69;1041484;28;716;-52
2021/12/27 01:41:00;;;;;;;;;;;;;;;10.98;53.60;99806.97;1041351;28;802;-52
2021/12/27 01:41:51;;;;;;;;;;;;;;;11.00;53.64;99805.03;1041510;28;668;-54
2021/12/27 01:42:41;;;;;;;;;;;;;;;10.99;53.75;99811.31;1041217;28;739;-53
2021/12/27 01:43:32;;;;;;;;;;;;;;;10.99;53.96;99811.31;1041354;28;692;-53
2021/12/27 01:44:22;;;;;;;;;;;;;;;10.99;53.71;99817.50;1041463;28;796;-51
2021/12/27 01:45:12;;;;;;;;;;;;;;;10.98;53.49;99804.31;1041031;28;1362;-54
2021/12/27 01:46:03;;;;;;;;;;;;;;;10.96;53.52;99798.25;1041345;28;713;-53
2021/12/27 01:46:53;;;;;;;;;;;;;;;10.95;53.71;99802.72;1041287;28;869;-53
2021/12/27 01:47:44;;;;;;;;;;;;;;;10.95;53.75;99794.72;1041371;28;732;-52
2021/12/27 01:48:37;;;;;;;;;;;;;;;10.97;53.33;99805.28;1041916;28;718;-53
2021/12/27 01:49:27;;;;;;;;;;;;;;;10.97;53.87;99802.59;1041216;28;778;-52
2021/12/27 01:50:18;;;;;;;;;;;;;;;10.96;53.78;99799.09;1041325;28;810;-50
2021/12/27 01:51:08;;;;;;;;;;;;;;;10.97;53.60;99806.13;1041278;28;855;-52
2021/12/27 01:51:58;;;;;;;;;;;;;;;10.97;53.47;99800.78;1041614;28;1865;-53
2021/12/27 01:52:49;;;;;;;;;;;;;;;10.98;53.86;99798.97;1040844;28;712;-54
2021/12/27 01:53:39;;;;;;;;;;;;;;;10.98;53.71;99798.97;1040541;28;672;-54
2021/12/27 01:54:30;;;;;;;;;;;;;;;10.98;53.68;99796.31;1040782;28;786;-53
2021/12/27 01:55:20;;;;;;;;;;;;;;;10.97;53.75;99794.59;1040427;28;899;-54
2021/12/27 01:56:11;;;;;;;;;;;;;;;10.96;53.52;99798.25;1041328;28;610;-54
2021/12/27 01:57:01;;;;;;;;;;;;;;;10.95;53.98;99791.22;1040866;28;704;-53
2021/12/27 01:57:51;;;;;;;;;;;;;;;10.95;53.94;99788.56;1040609;28;688;-54
2021/12/27 01:58:42;;;;;;;;;;;;;;;10.95;53.80;99793.88;1037521;28;756;-54
2021/12/27 01:59:32;;;;;;;;;;;;;;;10.94;53.94;99787.72;1037422;28;728;-55
2021/12/27 02:00:23;;;;;;;;;;;;;;;10.94;53.67;99786.84;1040397;28;920;-52
2021/12/27 02:01:13;;;;;;;;;;;;;;;10.95;54.06;99800.06;1040886;28;668;-55
2021/12/27 02:02:03;;;;;;;;;;;;;;;10.94;54.11;99789.53;1043307;28;1796;-55
2021/12/27 02:02:54;;;;;;;;;;;;;;;10.94;54.11;99793.03;1045340;28;748;-51
2021/12/27 02:03:44;;;;;;;;;;;;;;;10.96;53.80;99792.91;1044950;28;1853;-54
2021/12/27 02:04:35;;;;;;;;;;;;;;;10.97;53.76;99794.59;1045393;28;783;-52
2021/12/27 02:05:25;;;;;;;;;;;;;;;10.94;54.05;99793.03;1045351;28;793;-52
2021/12/27 02:06:16;;;;;;;;;;;;;;;10.96;54.00;99791.09;1045308;28;802;-52
2021/12/27 02:07:06;;;;;;;;;;;;;;;10.97;53.95;99794.59;1045431;28;725;-50
2021/12/27 02:07:56;;;;;;;;;;;;;;;10.96;53.85;99795.56;1045281;28;902;-53
2021/12/27 02:08:47;;;;;;;;;;;;;;;10.93;54.03;99796.69;1044180;28;2207;-53
2021/12/27 02:09:49;;;;;;;;;;;;;;;10.95;54.25;99794.72;1044754;28;1131;-53
2021/12/27 02:10:39;;;;;;;;;;;;;;;10.94;54.16;99797.53;1044714;28;754;-51
2021/12/27 02:11:34;;;;;;;;;;;;;;;10.93;54.00;99793.16;1044942;28;737;-51
2021/12/27 02:12:24;;;;;;;;;;;;;;;10.93;54.26;99798.50;1044841;28;1977;-53
2021/12/27 02:13:14;;;;;;;;;;;;;;;10.93;54.11;99794.00;1044823;28;751;-54
2021/12/27 02:14:05;;;;;;;;;;;;;;;10.92;54.18;99795.00;1044626;28;2048;-53
2021/12/27 02:14:55;;;;;;;;;;;;;;;10.92;54.21;99788.84;1045215;28;927;-53
2021/12/27 02:15:46;;;;;;;;;;;;;;;10.93;54.18;99790.50;1043704;28;1834;-54
2021/12/27 02:16:36;;;;;;;;;;;;;;;10.93;54.26;99793.16;1045302;28;709;-54
2021/12/27 02:17:27;;;;;;;;;;;;;;;10.92;54.08;99792.34;1044937;28;729;-52
2021/12/27 02:18:17;;;;;;;;;;;;;;;10.93;54.35;99796.69;1045173;28;960;-52
2021/12/27 02:19:08;;;;;;;;;;;;;;;10.92;53.99;99795.00;1045329;28;692;-51
2021/12/27 02:19:58;;;;;;;;;;;;;;;10.92;54.17;99794.16;1045222;28;826;-51
2021/12/27 02:20:48;;;;;;;;;;;;;;;10.92;54.15;99791.50;1045264;28;696;-50
2021/12/27 02:21:39;;;;;;;;;;;;;;;10.91;54.46;99795.13;1045436;28;953;-50
2021/12/27 02:22:34;;;;;;;;;;;;;;;10.91;53.93;99787.13;1045194;28;1046;-51
2021/12/27 02:23:25;;;;;;;;;;;;;;;10.89;54.21;99792.59;1044672;28;731;-50
2021/12/27 02:24:15;;;;;;;;;;;;;;;10.88;54.47;99782.06;1045437;28;751;-50
2021/12/27 02:25:05;;;;;;;;;;;;;;;10.90;54.18;99788.13;1045290;28;708;-52
2021/12/27 02:25:56;;;;;;;;;;;;;;;10.91;54.40;99781.81;1043404;28;1806;-53
2021/12/27 02:26:46;;;;;;;;;;;;;;;10.90;54.31;99791.63;1040533;28;782;-50
2021/12/27 02:27:37;;;;;;;;;;;;;;;10.89;54.17;99787.25;1040699;28;802;-51
2021/12/27 02:28:27;;;;;;;;;;;;;;;10.90;54.28;99785.44;1040672;28;806;-54
2021/12/27 02:29:17;;;;;;;;;;;;;;;10.91;54.36;99784.47;1040570;28;771;-49
2021/12/27 02:30:08;;;;;;;;;;;;;;;10.90;54.09;99782.78;1040803;28;827;-52
2021/12/27 02:30:58;;;;;;;;;;;;;;;10.90;54.24;99780.97;1040307;28;854;-51
2021/12/27 02:31:51;;;;;;;;;;;;;;;10.90;54.14;99791.63;1040512;28;753;-51
2021/12/27 02:32:41;;;;;;;;;;;;;;;10.90;54.52;99790.78;1041094;28;856;-51
2021/12/27 02:33:31;;;;;;;;;;;;;;;10.89;54.52;99789.09;1040430;28;706;-53
2021/12/27 02:34:22;;;;;;;;;;;;;;;10.89;54.32;99784.59;1040632;28;712;-53
2021/12/27 02:35:12;;;;;;;;;;;;;;;10.90;54.67;99782.78;1040656;28;863;-51
2021/12/27 02:36:03;;;;;;;;;;;;;;;10.89;54.10;99781.09;1040551;28;641;-50
2021/12/27 02:36:53;;;;;;;;;;;;;;;10.90;54.39;99785.44;1043117;28;1854;-53
2021/12/27 02:37:43;;;;;;;;;;;;;;;10.89;54.20;99783.75;1042984;28;1674;-54
2021/12/27 02:38:34;;;;;;;;;;;;;;;10.90;54.73;99788.97;1043331;28;1541;-50
2021/12/27 02:39:25;;;;;;;;;;;;;;;10.89;54.52;99779.28;1045158;28;1570;-52
2021/12/27 02:40:16;;;;;;;;;;;;;;;10.89;54.55;99779.28;1042405;28;1626;-54
2021/12/27 02:41:06;;;;;;;;;;;;;;;10.89;54.15;99773.09;1045737;28;948;-52
2021/12/27 02:41:56;;;;;;;;;;;;;;;10.88;54.72;99776.72;1046472;28;656;-53
2021/12/27 02:42:47;;;;;;;;;;;;;;;10.89;54.81;99778.44;1045900;28;708;-54
2021/12/27 02:43:39;;;;;;;;;;;;;;;10.92;54.80;99776.34;1045782;28;805;-50
2021/12/27 02:44:30;;;;;;;;;;;;;;;10.94;55.13;99776.19;1045285;28;775;-54
2021/12/27 02:45:20;;;;;;;;;;;;;;;10.94;54.71;99781.53;1045622;28;1267;-55
2021/12/27 02:46:11;;;;;;;;;;;;;;;10.94;54.54;99776.19;1045787;28;653;-50
2021/12/27 02:47:01;;;;;;;;;;;;;;;10.93;54.70;99771.84;1045116;28;2382;-56
2021/12/27 02:47:52;;;;;;;;;;;;;;;10.93;54.42;99774.50;1043141;28;1703;-51
2021/12/27 02:48:44;;;;;;;;;;;;;;;10.92;54.76;99779.03;1043793;28;1597;-53
2021/12/27 02:49:35;;;;;;;;;;;;;;;10.91;54.69;99768.50;1043978;28;1437;-51
2021/12/27 02:50:25;;;;;;;;;;;;;;;10.92;54.63;99762.19;1044935;28;1652;-53
2021/12/27 02:51:17;;;;;;;;;;;;;;;10.90;54.93;99766.78;1043622;28;1688;-53
2021/12/27 02:52:07;;;;;;;;;;;;;;;10.90;54.74;99766.78;1044161;28;1918;-54
2021/12/27 02:52:57;;;;;;;;;;;;;;;10.90;54.81;99758.78;1044503;28;1548;-50
2021/12/27 02:53:48;;;;;;;;;;;;;;;10.89;55.11;99757.94;1044884;28;1651;-51
2021/12/27 02:54:38;;;;;;;;;;;;;;;10.89;55.13;99752.63;1042912;28;1608;-52
2021/12/27 02:55:29;;;;;;;;;;;;;;;10.89;54.86;99754.44;1045728;28;1589;-51
2021/12/27 02:56:19;;;;;;;;;;;;;;;10.88;55.01;99766.91;1043449;28;1649;-52
2021/12/27 02:57:10;;;;;;;;;;;;;;;10.88;54.99;99750.94;1045190;28;629;-49
2021/12/27 02:58:00;;;;;;;;;;;;;;;10.87;54.94;99759.91;1045271;28;836;-53
2021/12/27 02:58:51;;;;;;;;;;;;;;;10.88;54.83;99747.41;1045202;28;633;-49
2021/12/27 02:59:42;;;;;;;;;;;;;;;10.87;54.90;99753.72;1044617;28;1818;-52
2021/12/27 03:00:33;;;;;;;;;;;;;;;10.87;54.96;99751.91;1045006;28;1432;-50
2021/12/27 03:01:23;;;;;;;;;;;;;;;10.87;55.02;99748.38;1045096;28;796;-51
2021/12/27 03:02:14;;;;;;;;;;;;;;;10.88;54.99;99747.41;1045152;28;954;-53
2021/12/27 03:03:04;;;;;;;;;;;;;;;10.85;55.18;99750.31;1045119;28;731;-54
2021/12/27 03:03:55;;;;;;;;;;;;;;;10.86;55.18;99752.03;1045105;28;645;-49
2021/12/27 03:04:46;;;;;;;;;;;;;;;10.85;55.15;99745.84;1045153;28;749;-53
2021/12/27 03:05:36;;;;;;;;;;;;;;;10.85;54.97;99745.00;1045243;28;744;-52
2021/12/27 03:06:26;;;;;;;;;;;;;;;10.86;55.22;99747.53;1045055;28;865;-51
2021/12/27 03:07:17;;;;;;;;;;;;;;;10.87;55.45;99745.72;1045338;28;715;-52
2021/12/27 03:08:13;;;;;;;;;;;;;;;10.86;55.19;99744.88;1045183;28;881;-52
2021/12/27 03:09:04;;;;;;;;;;;;;;;10.89;54.94;99746.44;1045194;28;628;-49
2021/12/27 03:09:58;;;;;;;;;;;;;;;10.88;54.85;99755.41;1044553;28;1883;-51
2021/12/27 03:10:48;;;;;;;;;;;;;;;10.87;55.07;99751.06;1045294;28;879;-49
2021/12/27 03:11:39;;;;;;;;;;;;;;;10.86;54.98;99747.53;1042612;28;1875;-50
2021/12/27 03:12:29;;;;;;;;;;;;;;;10.87;55.39;99754.56;1040403;28;1911;-49
2021/12/27 03:13:19;;;;;;;;;;;;;;;10.86;54.92;99752.03;1040403;28;722;-50
2021/12/27 03:14:10;;;;;;;;;;;;;;;10.86;55.04;99746.69;1041127;28;681;-52
2021/12/27 03:15:00;;;;;;;;;;;;;;;10.85;55.00;99748.50;1040597;28;850;-50
2021/12/27 03:15:51;;;;;;;;;;;;;;;10.86;55.36;99750.19;1040298;28;796;-49
2021/12/27 03:16:41;;;;;;;;;;;;;;;10.85;55.23;99748.50;1040584;28;756;-50
2021/12/27 03:17:31;;;;;;;;;;;;;;;10.86;55.09;99746.69;1040422;28;734;-48
2021/12/27 03:18:22;;;;;;;;;;;;;;;10.84;55.16;99744.16;1040532;28;805;-53
2021/12/27 03:19:12;;;;;;;;;;;;;;;10.84;55.03;99749.47;1040654;28;952;-49
2021/12/27 03:20:03;;;;;;;;;;;;;;;10.84;55.28;99749.47;1040451;28;704;-50
2021/12/27 03:20:53;;;;;;;;;;;;;;;10.84;55.28;99760.16;1040443;28;759;-51
2021/12/27 03:21:43;;;;;;;;;;;;;;;10.84;55.08;99749.47;1040750;28;1964;-53
2021/12/27 03:22:34;;;;;;;;;;;;;;;10.84;55.08;99745.97;1040419;28;754;-54
2021/12/27 03:23:24;;;;;;;;;;;;;;;10.84;55.23;99756.63;1040238;28;716;-51
2021/12/27 03:24:15;;;;;;;;;;;;;;;10.84;55.41;99744.16;1040514;28;770;-51
2021/12/27 03:25:05;;;;;;;;;;;;;;;10.85;55.23;99755.66;1040509;28;873;-49
2021/12/27 03:25:56;;;;;;;;;;;;;;;10.84;55.35;99749.47;1040480;28;778;-50
2021/12/27 03:26:46;;;;;;;;;;;;;;;10.84;55.25;99745.97;1041678;28;640;-50
2021/12/27 03:27:36;;;;;;;;;;;;;;;10.85;55.17;99745.00;1040214;28;700;-52
2021/12/27 03:28:27;;;;;;;;;;;;;;;10.86;55.11;99749.34;1040450;28;652;-53
2021/12/27 03:29:17;;;;;;;;;;;;;;;10.84;55.24;99749.47;1041494;28;772;-53
2021/12/27 03:30:08;;;;;;;;;;;;;;;10.85;55.16;99747.66;1040460;28;621;-51
2021/12/27 03:30:58;;;;;;;;;;;;;;;10.85;55.07;99751.19;1040581;28;649;-52
2021/12/27 03:31:50;;;;;;;;;;;;;;;10.83;55.34;99742.47;1040417;28;702;-50
2021/12/27 03:32:40;;;;;;;;;;;;;;;10.84;55.17;99748.63;1041060;28;705;-50
2021/12/27 03:33:31;;;;;;;;;;;;;;;10.83;55.26;99753.13;1041996;28;1804;-51
2021/12/27 03:34:21;;;;;;;;;;;;;;;10.83;55.03;99746.94;1045214;28;820;-49
2021/12/27 03:35:14;;;;;;;;;;;;;;;10.84;55.11;99748.63;1045033;28;710;-51
2021/12/27 03:36:06;;;;;;;;;;;;;;;10.83;55.22;99746.94;1045247;28;716;-51
2021/12/27 03:36:56;;;;;;;;;;;;;;;10.83;55.56;99742.47;1044423;28;1719;-49
2021/12/27 03:37:47;;;;;;;;;;;;;;;10.82;55.50;99740.75;1040955;28;946;-51
2021/12/27 03:38:37;;;;;;;;;;;;;;;10.83;55.12;99733.63;1041112;28;745;-50
2021/12/27 03:39:28;;;;;;;;;;;;;;;10.83;55.40;99736.28;1041042;28;745;-53
2021/12/27 03:40:18;;;;;;;;;;;;;;;10.82;55.44;99735.44;1041066;28;717;-52
2021/12/27 03:41:08;;;;;;;;;;;;;;;10.82;55.35;99739.91;1041079;28;594;-51
2021/12/27 03:41:59;;;;;;;;;;;;;;;10.82;55.38;99737.25;1042872;28;1961;-53
2021/12/27 03:42:50;;;;;;;;;;;;;;;10.80;55.50;99737.38;1044956;28;685;-51
2021/12/27 03:43:40;;;;;;;;;;;;;;;10.82;55.17;99739.91;1045128;28;816;-51
2021/12/27 03:44:31;;;;;;;;;;;;;;;10.80;55.27;99737.38;1045176;28;714;-50
2021/12/27 03:45:21;;;;;;;;;;;;;;;10.84;55.41;99737.97;1044873;28;1487;-52
2021/12/27 03:46:11;;;;;;;;;;;;;;;10.83;55.12;99747.78;1044894;28;811;-53
2021/12/27 03:47:02;;;;;;;;;;;;;;;10.82;55.45;99737.25;1045174;28;634;-52
2021/12/27 03:47:52;;;;;;;;;;;;;;;10.81;55.53;99739.06;1045209;28;850;-51
2021/12/27 03:48:43;;;;;;;;;;;;;;;10.81;55.56;99732.91;1045777;28;820;-50
2021/12/27 03:49:33;;;;;;;;;;;;;;;10.81;55.39;99738.22;1045974;28;786;-53
2021/12/27 03:50:26;;;;;;;;;;;;;;;10.81;55.44;99736.41;1045785;28;787;-51
2021/12/27 03:51:17;;;;;;;;;;;;;;;10.81;55.31;99730.22;1045784;28;765;-54
2021/12/27 03:52:07;;;;;;;;;;;;;;;10.81;55.50;99728.41;1045205;28;1839;-52
2021/12/27 03:52:57;;;;;;;;;;;;;;;10.79;55.58;99731.19;1045856;28;700;-51
2021/12/27 03:53:48;;;;;;;;;;;;;;;10.81;55.43;99732.91;1045456;28;1851;-53
2021/12/27 03:54:38;;;;;;;;;;;;;;;10.79;55.42;99736.53;1046003;28;839;-51
2021/12/27 03:55:29;;;;;;;;;;;;;;;10.79;55.42;99731.19;1045823;28;793;-50
2021/12/27 03:56:23;;;;;;;;;;;;;;;10.79;55.46;99725.88;1045935;28;863;-54
2021/12/27 03:57:15;;;;;;;;;;;;;;;10.78;55.52;99726.84;1045796;28;793;-52
2021/12/27 03:58:11;;;;;;;;;;;;;;;10.79;55.78;99728.53;1045902;28;656;-51
2021/12/27 03:59:20;;;;;;;;;;;;;;;10.78;55.52;99724.19;1042061;28;649;-52
2021/12/27 04:01:15;;;;;;;;;;;;;;;10.78;55.48;99724.19;1046460;28;668;-53
2021/12/27 04:02:06;;;;;;;;;;;;;;;10.78;55.58;99726.84;1045864;28;785;-51
2021/12/27 04:02:56;;;;;;;;;;;;;;;10.78;55.59;99726.84;1045939;28;865;-52
2021/12/27 04:03:47;;;;;;;;;;;;;;;10.79;55.61;99719.69;1045535;28;1968;-53
2021/12/27 04:04:37;;;;;;;;;;;;;;;10.78;55.36;99724.19;1041168;28;817;-53
2021/12/27 04:05:27;;;;;;;;;;;;;;;10.79;55.40;99730.34;1041347;28;808;-53
2021/12/27 04:06:18;;;;;;;;;;;;;;;10.77;55.59;99717.16;1041195;28;743;-50
2021/12/27 04:07:08;;;;;;;;;;;;;;;10.78;55.89;99729.50;1041316;28;851;-53
2021/12/27 04:08:09;;;;;;;;;;;;;;;10.78;55.61;99718.84;1041156;28;626;-54
2021/12/27 04:08:59;;;;;;;;;;;;;;;10.78;55.53;99723.34;1041267;28;839;-50
2021/12/27 04:09:50;;;;;;;;;;;;;;;10.78;55.82;99723.34;1041185;28;626;-52
2021/12/27 04:10:40;;;;;;;;;;;;;;;10.78;55.44;99729.50;1041102;28;770;-53
2021/12/27 04:11:31;;;;;;;;;;;;;;;10.78;55.69;99720.66;1041059;28;1001;-52
2021/12/27 04:12:21;;;;;;;;;;;;;;;10.78;55.67;99718.00;1041972;28;1909;-52
2021/12/27 04:13:12;;;;;;;;;;;;;;;10.79;55.36;99712.56;1041377;28;880;-52
2021/12/27 04:14:02;;;;;;;;;;;;;;;10.79;55.47;99715.22;1042176;28;832;-52
2021/12/27 04:14:53;;;;;;;;;;;;;;;10.78;55.67;99715.34;1041666;28;846;-54
2021/12/27 04:15:44;;;;;;;;;;;;;;;10.77;55.53;99710.97;1041644;28;1128;-54
2021/12/27 04:16:34;;;;;;;;;;;;;;;10.76;55.61;99712.81;1041208;28;794;-53
2021/12/27 04:17:25;;;;;;;;;;;;;;;10.75;55.61;99712.94;1041551;28;880;-51
2021/12/27 04:18:16;;;;;;;;;;;;;;;10.75;55.92;99708.44;1041670;28;731;-53
2021/12/27 04:19:06;;;;;;;;;;;;;;;10.76;55.83;99709.28;1041613;28;814;-53
2021/12/27 04:19:57;;;;;;;;;;;;;;;10.76;55.85;99702.16;1037305;28;658;-50
2021/12/27 04:20:47;;;;;;;;;;;;;;;10.77;55.86;99703.00;1037339;28;669;-54
2021/12/27 04:21:38;;;;;;;;;;;;;;;10.77;55.83;99703.00;1041311;28;1008;-52
2021/12/27 04:22:28;;;;;;;;;;;;;;;10.78;55.62;99699.34;1041750;28;731;-53
2021/12/27 04:23:19;;;;;;;;;;;;;;;10.77;55.58;99695.84;1041613;28;948;-54
2021/12/27 04:24:09;;;;;;;;;;;;;;;10.77;55.86;99698.50;1041772;28;795;-55
2021/12/27 04:24:59;;;;;;;;;;;;;;;10.76;55.84;99699.47;1042232;28;794;-54
2021/12/27 04:25:50;;;;;;;;;;;;;;;10.76;55.68;99699.47;1041079;28;788;-54
2021/12/27 04:26:40;;;;;;;;;;;;;;;10.76;55.99;99698.63;1041770;28;818;-54
2021/12/27 04:27:31;;;;;;;;;;;;;;;10.75;55.97;99696.94;1041584;28;740;-51
2021/12/27 04:28:21;;;;;;;;;;;;;;;10.75;55.53;99700.44;1041711;28;694;-52
2021/12/27 04:29:11;;;;;;;;;;;;;;;10.76;55.78;99698.63;1041475;28;814;-52
2021/12/27 04:30:02;;;;;;;;;;;;;;;10.75;55.83;99695.13;1041715;28;841;-51
2021/12/27 04:30:52;;;;;;;;;;;;;;;10.76;55.88;99696.81;1041691;28;738;-51
2021/12/27 04:31:43;;;;;;;;;;;;;;;10.76;55.77;99699.47;1045124;28;1844;-53
2021/12/27 04:32:33;;;;;;;;;;;;;;;10.75;55.81;99697.78;1045734;28;1951;-54
2021/12/27 04:33:23;;;;;;;;;;;;;;;10.75;55.88;99697.78;1045714;28;709;-53
2021/12/27 04:34:14;;;;;;;;;;;;;;;10.75;55.87;99699.59;1045654;28;845;-54
2021/12/27 04:35:04;;;;;;;;;;;;;;;10.75;55.75;99692.47;1045861;28;680;-55